Time;durP1;ratioP1;P1;durP2;ratioP2;P2;SDS_P1;SDS_P2;PMS_P1;PMS_P2;Temp;Humidity;BMP_temperature;BMP_pressure;BME280_temperature;BME280_humidity;BME280_pressure;Samples;Min_cycle;Max_cycle;Signal;HPM_P1;HPM_P2
2022/08/09 00:00:16;;;;;;;;;7.75;7.75;;;;;25.75;38.54;99303.66;5047054;28;46003;-62
2022/08/09 00:02:42;;;;;;;;;8.00;6.50;;;;;25.76;38.49;99305.34;5043575;28;45473;-62
2022/08/09 00:05:07;;;;;;;;;8.25;8.25;;;;;25.75;38.49;99309.06;5051302;28;45958;-63
2022/08/09 00:07:33;;;;;;;;;7.50;7.50;;;;;25.77;38.39;99317.00;5056421;28;45369;-63
2022/08/09 00:09:58;;;;;;;;;6.50;6.50;;;;;25.76;38.17;99312.63;5048092;28;45451;-63
2022/08/09 00:12:23;;;;;;;;;8.00;8.00;;;;;25.77;38.66;99312.47;5056512;28;45514;-63
2022/08/09 00:14:50;;;;;;;;;7.75;7.00;;;;;25.76;39.30;99316.16;5048527;28;45518;-63
2022/08/09 00:17:16;;;;;;;;;6.50;6.00;;;;;25.71;39.19;99308.50;5054983;28;45301;-63
2022/08/09 00:19:41;;;;;;;;;7.50;7.00;;;;;25.68;39.10;99313.34;5046399;28;46159;-66
2022/08/09 00:22:07;;;;;;;;;9.00;8.25;;;;;25.64;38.96;99312.81;5053139;28;45452;-65
2022/08/09 00:24:33;;;;;;;;;7.00;7.00;;;;;25.61;39.27;99313.09;5045105;28;45792;-65
2022/08/09 00:26:59;;;;;;;;;4.50;4.50;;;;;25.59;39.06;99312.41;5057354;28;45546;-64
2022/08/09 00:29:26;;;;;;;;;9.00;7.50;;;;;25.58;38.89;99318.81;5049152;28;46413;-64
2022/08/09 00:31:51;;;;;;;;;7.20;7.20;;;;;25.56;38.97;99318.09;5041949;28;45485;-64
2022/08/09 00:34:17;;;;;;;;;7.00;7.00;;;;;25.56;38.83;99318.09;5049532;28;45474;-65
2022/08/09 00:36:43;;;;;;;;;11.00;9.75;;;;;25.56;39.29;99318.09;5052692;28;46027;-64
2022/08/09 00:39:09;;;;;;;;;9.25;9.25;;;;;25.56;39.00;99319.97;5047656;28;45445;-66
2022/08/09 00:41:34;;;;;;;;;9.50;9.00;;;;;25.55;39.26;99320.97;5052001;28;45421;-65
2022/08/09 00:44:00;;;;;;;;;9.00;9.00;;;;;25.52;39.17;99322.09;5053305;28;45487;-66
2022/08/09 00:46:25;;;;;;;;;9.25;9.25;;;;;25.52;39.41;99323.94;5056851;28;45582;-66
2022/08/09 00:48:51;;;;;;;;;7.75;7.75;;;;;25.51;39.08;99324.94;5054359;28;46189;-65
2022/08/09 00:51:16;;;;;;;;;8.75;8.00;;;;;25.50;39.51;99324.09;5054098;28;45450;-63
2022/08/09 00:53:44;;;;;;;;;8.75;8.75;;;;;25.50;39.77;99336.75;5050360;28;45430;-64
2022/08/09 00:56:09;;;;;;;;;8.75;8.75;;;;;25.47;40.00;99335.19;5051811;28;45457;-63
2022/08/09 00:58:35;;;;;;;;;7.75;7.50;;;;;25.45;40.34;99326.44;5047704;28;45425;-63
2022/08/09 01:01:24;;;;;;;;;10.00;9.25;;;;;25.43;40.26;99333.81;5048584;28;45419;-63
2022/08/09 01:03:53;;;;;;;;;8.00;7.75;;;;;25.42;39.93;99344.75;5050806;28;45434;-64
2022/08/09 01:06:28;;;;;;;;;7.75;7.75;;;;;25.40;40.00;99344.91;5056538;28;45554;-63
2022/08/09 01:09:02;;;;;;;;;9.00;9.00;;;;;25.35;39.96;99337.25;5048848;28;45380;-63
2022/08/09 01:11:38;;;;;;;;;8.50;8.00;;;;;25.32;40.32;99340.25;5056545;28;45375;-64
2022/08/09 01:14:07;;;;;;;;;8.50;8.50;;;;;25.31;40.32;99346.66;5048102;28;45326;-67
2022/08/09 01:16:38;;;;;;;;;11.50;8.00;;;;;25.29;39.98;99340.56;5049204;28;45444;-64
2022/08/09 01:19:35;;;;;;;;;8.00;6.00;;;;;25.25;40.16;99341.88;5044526;28;47080;-65
2022/08/09 01:22:12;;;;;;;;;9.00;8.50;;;;;25.23;39.86;99340.31;5047121;28;45326;-65
2022/08/09 01:25:25;;;;;;;;;7.25;7.25;;;;;25.20;40.15;99336.06;5050036;28;45532;-64
2022/08/09 01:27:54;;;;;;;;;8.00;6.75;;;;;25.20;40.52;99341.44;5053528;28;45480;-64
2022/08/09 01:30:24;;;;;;;;;8.75;8.75;;;;;25.18;40.21;99337.19;5049156;28;47257;-64
2022/08/09 01:32:51;;;;;;;;;9.60;9.60;;;;;25.17;40.37;99343.59;5056141;28;45555;-65
2022/08/09 01:35:23;;;;;;;;;7.25;7.00;;;;;25.14;41.07;99335.78;5043150;28;45414;-65
2022/08/09 01:37:52;;;;;;;;;10.25;7.25;;;;;25.11;41.01;99342.34;5055739;28;45373;-65
2022/08/09 01:40:20;;;;;;;;;9.00;7.00;;;;;25.07;41.40;99337.41;5043273;28;45476;-65
2022/08/09 01:42:47;;;;;;;;;9.00;8.00;;;;;25.03;41.18;99339.53;5054231;28;45429;-65
2022/08/09 01:45:14;;;;;;;;;8.00;7.00;;;;;25.01;40.96;99338.84;5052983;28;45289;-65
2022/08/09 01:47:41;;;;;;;;;8.00;8.00;;;;;24.99;40.88;99340.81;5054602;28;45584;-64
2022/08/09 01:50:10;;;;;;;;;8.00;7.50;;;;;24.97;40.89;99349.06;5049369;28;46154;-65
2022/08/09 01:52:37;;;;;;;;;7.00;7.00;;;;;24.93;40.46;99342.25;5054726;28;45538;-65
2022/08/09 01:55:03;;;;;;;;;8.00;8.00;;;;;24.90;40.54;99339.00;5043763;28;45429;-64
2022/08/09 01:57:37;;;;;;;;;7.50;7.50;;;;;24.84;41.10;99348.50;5052933;28;45423;-65
2022/08/09 02:00:06;;;;;;;;;6.75;6.75;;;;;24.80;41.42;99343.56;5046254;28;46726;-64
2022/08/09 02:02:35;;;;;;;;;8.20;8.20;;;;;24.77;41.31;99347.41;5051386;28;45432;-65
2022/08/09 02:05:05;;;;;;;;;8.00;8.00;;;;;24.74;41.32;99345.00;5048580;28;45756;-65
2022/08/09 02:07:35;;;;;;;;;6.50;6.50;;;;;24.69;40.85;99344.56;5051995;28;45601;-65
2022/08/09 02:10:08;;;;;;;;;8.50;8.00;;;;;24.68;41.29;99340.19;5048328;28;45585;-65
2022/08/09 02:12:36;;;;;;;;;11.00;10.80;;;;;24.66;40.85;99351.09;5047833;28;45391;-65
2022/08/09 02:15:06;;;;;;;;;8.00;8.00;;;;;24.65;41.00;99346.69;5055945;28;45454;-64
2022/08/09 02:17:32;;;;;;;;;6.75;6.75;;;;;24.61;41.22;99342.63;5053762;28;45511;-64
2022/08/09 02:19:58;;;;;;;;;9.00;7.25;;;;;24.58;41.31;99351.00;5047982;28;46453;-63
2022/08/09 02:22:28;;;;;;;;;5.75;5.75;;;;;24.53;41.41;99341.63;5053292;28;45706;-63
2022/08/09 02:24:57;;;;;;;;;9.00;7.00;;;;;24.48;41.63;99338.50;5049506;28;45445;-63
2022/08/09 02:27:25;;;;;;;;;9.50;8.25;;;;;24.43;41.71;99341.66;5053048;28;45604;-63
2022/08/09 02:29:53;;;;;;;;;6.50;5.75;;;;;24.39;42.04;99345.63;5046821;28;45452;-67
2022/08/09 02:32:21;;;;;;;;;7.80;6.80;;;;;24.37;42.53;99347.59;5052181;28;45245;-67
2022/08/09 02:35:01;;;;;;;;;8.00;7.50;;;;;24.37;42.54;99353.00;5051511;28;45528;-63
2022/08/09 02:37:30;;;;;;;;;10.00;8.50;;;;;24.35;41.82;99352.28;5052041;28;45429;-63
2022/08/09 02:39:59;;;;;;;;;10.25;8.50;;;;;24.33;41.99;99355.13;5052540;28;45509;-63
2022/08/09 02:42:32;;;;;;;;;8.00;7.00;;;;;24.31;42.95;99358.94;5043680;28;45494;-63
2022/08/09 02:45:12;;;;;;;;;7.00;7.00;;;;;24.28;42.76;99352.03;5053470;28;45582;-63
2022/08/09 02:47:40;;;;;;;;;8.00;8.00;;;;;24.26;42.60;99353.16;5054877;28;45372;-63
2022/08/09 02:50:11;;;;;;;;;8.50;7.75;;;;;24.22;43.12;99363.34;5046778;28;45738;-62
2022/08/09 02:52:41;;;;;;;;;10.50;9.25;;;;;24.20;43.13;99362.63;5049561;28;45378;-62
2022/08/09 02:55:10;;;;;;;;;9.75;9.75;;;;;24.19;42.82;99371.69;5050489;28;45460;-63
2022/08/09 02:57:38;;;;;;;;;10.00;10.00;;;;;24.18;42.80;99361.06;5053393;28;45487;-62
2022/08/09 03:00:08;;;;;;;;;8.50;8.00;;;;;24.18;42.70;99371.81;5061903;28;45344;-62
2022/08/09 03:02:34;;;;;;;;;10.00;9.00;;;;;24.16;42.38;99376.50;5053394;28;45436;-62
2022/08/09 03:05:02;;;;;;;;;8.50;8.25;;;;;24.13;42.34;99374.94;5046064;28;45432;-64
2022/08/09 03:07:29;;;;;;;;;7.00;6.75;;;;;24.10;42.56;99375.25;5054293;28;45156;-64
2022/08/09 03:09:56;;;;;;;;;7.50;7.50;;;;;24.06;42.63;99372.97;5045364;28;46344;-62
2022/08/09 03:12:24;;;;;;;;;6.60;6.60;;;;;24.04;42.22;99377.63;5054479;28;45409;-63
2022/08/09 03:14:52;;;;;;;;;7.50;7.00;;;;;24.02;42.88;99377.78;5050202;28;45490;-62
2022/08/09 03:17:20;;;;;;;;;8.00;6.50;;;;;24.00;42.47;99375.22;5054895;28;45433;-63
2022/08/09 03:19:46;;;;;;;;;6.25;6.25;;;;;23.97;42.72;99367.41;5047430;28;46691;-63
2022/08/09 03:22:13;;;;;;;;;6.80;6.80;;;;;23.96;42.48;99372.97;5055083;28;45453;-63
2022/08/09 03:24:38;;;;;;;;;5.75;5.75;;;;;23.94;42.37;99378.50;5051045;28;45515;-62
2022/08/09 03:27:10;;;;;;;;;7.50;7.50;;;;;23.94;42.48;99375.81;5060077;28;45377;-62
2022/08/09 03:29:37;;;;;;;;;7.25;7.25;;;;;23.93;42.65;99375.94;5049944;28;46216;-62
2022/08/09 03:32:04;;;;;;;;;7.20;7.20;;;;;23.88;42.61;99365.56;5061241;28;45653;-62
2022/08/09 03:34:29;;;;;;;;;9.00;6.00;;;;;23.82;42.69;99366.13;5057695;28;45423;-62
2022/08/09 03:36:56;;;;;;;;;7.25;7.00;;;;;23.80;43.24;99368.09;5060146;28;45519;-62
2022/08/09 03:39:24;;;;;;;;;7.00;7.00;;;;;23.77;42.85;99376.47;5053456;28;45529;-62
2022/08/09 03:41:50;;;;;;;;;7.80;7.80;;;;;23.76;43.11;99371.22;5057089;28;45310;-62
2022/08/09 03:44:15;;;;;;;;;9.50;8.75;;;;;23.72;43.27;99378.72;5058651;28;45442;-62
2022/08/09 03:46:40;;;;;;;;;9.75;9.75;;;;;23.70;43.04;99374.47;5059458;28;45340;-62
2022/08/09 03:49:07;;;;;;;;;8.75;8.00;;;;;23.70;43.51;99374.47;5054091;28;46574;-63
2022/08/09 03:51:34;;;;;;;;;10.00;9.00;;;;;23.66;43.81;99369.34;5053788;28;45577;-67
2022/08/09 03:54:01;;;;;;;;;8.00;8.00;;;;;23.65;43.94;99378.41;5049562;28;45467;-62
2022/08/09 03:56:26;;;;;;;;;11.50;11.00;;;;;23.64;43.66;99368.63;5053011;28;45476;-62
2022/08/09 03:58:52;;;;;;;;;9.50;9.00;;;;;23.65;43.81;99377.56;5053852;28;46254;-62
2022/08/09 04:01:17;;;;;;;;;9.25;8.75;;;;;23.62;43.78;99375.19;5061011;28;45987;-63
2022/08/09 04:03:44;;;;;;;;;7.25;5.00;;;;;23.63;43.97;99384.94;5058825;28;45403;-63
2022/08/09 04:06:09;;;;;;;;;11.00;10.50;;;;;23.61;43.59;99387.78;5060899;28;45571;-64
2022/08/09 04:08:35;;;;;;;;;13.50;12.00;;;;;23.59;44.31;99386.22;5048639;28;45519;-63
2022/08/09 04:11:00;;;;;;;;;13.25;10.25;;;;;23.59;44.13;99381.69;5057752;28;45424;-62
2022/08/09 04:13:25;;;;;;;;;12.75;10.00;;;;;23.60;44.18;99379.84;5055287;28;45575;-62
2022/08/09 04:15:51;;;;;;;;;10.25;10.25;;;;;23.59;43.73;99388.91;5058300;28;45492;-62
2022/08/09 04:18:18;;;;;;;;;12.00;10.00;;;;;23.57;43.67;99389.03;5053847;28;47501;-62
2022/08/09 04:20:43;;;;;;;;;10.75;10.75;;;;;23.55;44.00;99388.31;5056705;28;45448;-62
2022/08/09 04:23:08;;;;;;;;;12.75;12.75;;;;;23.54;44.31;99397.38;5056952;28;46116;-62
2022/08/09 04:25:34;;;;;;;;;13.00;12.00;;;;;23.51;44.37;99394.06;5052857;28;45443;-62
2022/08/09 04:28:00;;;;;;;;;11.00;10.25;;;;;23.50;44.25;99400.44;5055633;28;45495;-63
2022/08/09 04:30:25;;;;;;;;;9.50;8.00;;;;;23.51;44.46;99410.22;5052363;28;45390;-64
2022/08/09 04:32:51;;;;;;;;;10.00;10.00;;;;;23.51;44.38;99404.84;5043673;28;45508;-63
2022/08/09 04:35:17;;;;;;;;;8.75;8.75;;;;;23.50;43.84;99408.50;5051538;28;45626;-63
2022/08/09 04:37:42;;;;;;;;;10.25;9.25;;;;;23.48;44.54;99410.50;5051993;28;45529;-63
2022/08/09 04:40:08;;;;;;;;;8.25;8.25;;;;;23.47;44.22;99412.31;5051736;28;45574;-63
2022/08/09 04:42:34;;;;;;;;;13.00;11.00;;;;;23.46;44.33;99415.19;5051259;28;45308;-63
2022/08/09 04:45:00;;;;;;;;;11.00;11.00;;;;;23.44;44.69;99422.53;5042476;28;45550;-62
2022/08/09 04:47:27;;;;;;;;;13.50;12.25;;;;;23.41;44.46;99418.28;5056544;28;45978;-63
2022/08/09 04:49:54;;;;;;;;;9.75;9.75;;;;;23.41;44.74;99422.81;5049697;28;45235;-63
2022/08/09 04:52:21;;;;;;;;;11.25;11.25;;;;;23.40;44.76;99424.63;5054503;28;45531;-63
2022/08/09 04:54:47;;;;;;;;;12.25;10.25;;;;;23.41;44.95;99426.34;5051371;28;45514;-63
2022/08/09 04:57:12;;;;;;;;;11.00;10.75;;;;;23.41;44.75;99423.66;5056272;28;47098;-63
2022/08/09 04:59:38;;;;;;;;;12.25;11.00;;;;;23.41;44.63;99431.72;5052531;28;45338;-63
2022/08/09 05:02:03;;;;;;;;;13.00;10.50;;;;;23.42;44.58;99427.19;5056844;28;45364;-63
2022/08/09 05:04:29;;;;;;;;;9.00;9.00;;;;;23.42;44.69;99433.44;5044524;28;45376;-63
2022/08/09 05:06:54;;;;;;;;;10.50;10.50;;;;;23.41;44.56;99436.25;5056479;28;45712;-63
2022/08/09 05:09:20;;;;;;;;;11.25;11.25;;;;;23.41;44.42;99438.94;5056368;28;45506;-64
2022/08/09 05:11:46;;;;;;;;;10.25;9.00;;;;;23.44;44.60;99436.00;5056642;28;45426;-64
2022/08/09 05:14:11;;;;;;;;;10.25;10.00;;;;;23.45;44.74;99441.25;5054050;28;45492;-66
2022/08/09 05:16:36;;;;;;;;;12.25;12.00;;;;;23.44;44.86;99442.22;5049920;28;45563;-64
2022/08/09 05:19:02;;;;;;;;;10.50;10.50;;;;;23.45;44.66;99448.47;5055244;28;45447;-67
2022/08/09 05:21:28;;;;;;;;;11.75;11.00;;;;;23.46;44.90;99450.16;5054897;28;45411;-68
2022/08/09 05:23:54;;;;;;;;;13.25;13.25;;;;;23.47;45.09;99450.00;5053027;28;45440;-68
2022/08/09 05:26:19;;;;;;;;;11.00;9.50;;;;;23.47;45.05;99451.84;5053768;28;46002;-68
2022/08/09 05:28:45;;;;;;;;;12.00;12.00;;;;;23.47;45.27;99447.31;5052267;28;45456;-66
2022/08/09 05:31:10;;;;;;;;;14.00;10.50;;;;;23.48;44.92;99451.72;5055467;28;45420;-65
2022/08/09 05:33:36;;;;;;;;;11.75;10.25;;;;;23.48;45.23;99454.41;5054104;28;45416;-66
2022/08/09 05:36:02;;;;;;;;;12.00;12.00;;;;;23.50;45.31;99459.66;5052313;28;46464;-66
2022/08/09 05:38:29;;;;;;;;;11.00;11.00;;;;;23.51;45.24;99454.16;5055723;28;45397;-66
2022/08/09 05:40:54;;;;;;;;;9.75;9.50;;;;;23.53;45.43;99456.72;5055769;28;45472;-66
2022/08/09 05:43:19;;;;;;;;;11.75;10.00;;;;;23.54;44.67;99461.13;5052567;28;45596;-66
2022/08/09 05:45:45;;;;;;;;;10.25;9.25;;;;;23.56;45.00;99465.41;5054634;28;45499;-66
2022/08/09 05:48:10;;;;;;;;;9.00;9.00;;;;;23.58;44.84;99459.88;5051105;28;45440;-66
2022/08/09 05:50:37;;;;;;;;;9.00;9.00;;;;;23.62;44.58;99466.69;5053286;28;45404;-65
2022/08/09 05:53:03;;;;;;;;;9.50;9.50;;;;;23.64;44.79;99460.16;5052422;28;46191;-66
2022/08/09 05:55:28;;;;;;;;;11.50;11.25;;;;;23.67;44.36;99459.91;5055139;28;45436;-65
2022/08/09 05:57:54;;;;;;;;;7.25;7.25;;;;;23.72;44.36;99469.41;5053471;28;45428;-73
2022/08/09 06:00:19;;;;;;;;;8.50;8.50;;;;;23.74;44.40;99465.59;5053867;28;45475;-72
2022/08/09 06:02:45;;;;;;;;;11.00;10.00;;;;;23.77;44.59;99472.56;5052359;28;45510;-72
2022/08/09 06:05:10;;;;;;;;;10.00;9.00;;;;;23.79;44.62;99471.44;5048812;28;46320;-66
2022/08/09 06:07:36;;;;;;;;;12.00;10.00;;;;;23.81;44.23;99466.75;5053734;28;45377;-75
2022/08/09 06:10:02;;;;;;;;;10.00;10.00;;;;;23.83;44.42;99470.16;5051923;28;45440;-73
2022/08/09 06:12:28;;;;;;;;;12.75;11.00;;;;;23.85;44.59;99475.41;5054437;28;45400;-73
2022/08/09 06:14:53;;;;;;;;;9.75;9.00;;;;;23.86;44.42;99483.34;5054239;28;45602;-67
2022/08/09 06:17:19;;;;;;;;;12.00;10.75;;;;;23.88;44.40;99481.38;5054604;28;45484;-67
2022/08/09 06:19:44;;;;;;;;;8.50;7.50;;;;;23.91;44.42;99478.41;5054295;28;45862;-70
2022/08/09 06:22:10;;;;;;;;;8.00;8.00;;;;;23.94;45.05;99478.16;5054190;28;45393;-71
2022/08/09 06:24:35;;;;;;;;;9.00;9.00;;;;;23.97;44.52;99477.84;5053582;28;46719;-72
2022/08/09 06:27:00;;;;;;;;;10.00;8.25;;;;;23.99;44.59;99475.88;5053967;28;45286;-65
2022/08/09 06:29:26;;;;;;;;;12.50;9.75;;;;;24.04;44.23;99477.31;5047030;28;45467;-65
2022/08/09 06:31:51;;;;;;;;;10.00;9.25;;;;;24.06;44.59;99478.88;5054304;28;45496;-67
2022/08/09 06:34:17;;;;;;;;;10.75;10.00;;;;;24.10;44.26;99483.00;5044286;28;46309;-67
2022/08/09 06:36:42;;;;;;;;;12.50;12.25;;;;;24.12;43.75;99482.88;5054204;28;45405;-66
2022/08/09 06:39:10;;;;;;;;;11.25;8.50;;;;;24.13;44.19;99481.88;5054295;28;45359;-66
2022/08/09 06:41:37;;;;;;;;;9.00;9.00;;;;;24.14;44.39;99472.78;5040532;28;45513;-77
2022/08/09 06:44:03;;;;;;;;;12.00;11.25;;;;;24.17;44.18;99486.84;5042363;28;46343;-63
2022/08/09 06:46:29;;;;;;;;;12.75;11.25;;;;;24.20;44.29;99489.25;5053499;28;45368;-65
2022/08/09 06:48:54;;;;;;;;;13.25;12.25;;;;;24.25;44.23;99489.72;5046210;28;45506;-65
2022/08/09 06:51:20;;;;;;;;;10.25;10.25;;;;;24.31;44.23;99485.59;5045157;28;45377;-65
2022/08/09 06:53:45;;;;;;;;;11.25;11.25;;;;;24.35;44.08;99489.72;5048846;28;45331;-65
2022/08/09 06:56:11;;;;;;;;;13.50;11.00;;;;;24.39;44.31;99499.25;5053730;28;45443;-64
2022/08/09 06:58:37;;;;;;;;;10.00;10.00;;;;;24.43;44.29;99489.91;5049900;28;45329;-62
2022/08/09 07:01:03;;;;;;;;;9.00;8.50;;;;;24.49;44.42;99488.47;5049192;28;45568;-65
2022/08/09 07:03:28;;;;;;;;;9.75;8.50;;;;;24.55;44.45;99490.63;5052839;28;46605;-64
2022/08/09 07:05:54;;;;;;;;;11.50;9.00;;;;;24.61;44.36;99499.00;5052658;28;45490;-64
2022/08/09 07:08:20;;;;;;;;;6.75;6.00;;;;;24.70;43.97;99498.13;5051861;28;45580;-61
2022/08/09 07:10:46;;;;;;;;;10.50;10.50;;;;;24.80;43.80;99502.69;5050792;28;45550;-62
2022/08/09 07:13:11;;;;;;;;;8.00;8.00;;;;;24.87;43.56;99498.41;5050074;28;45798;-62
2022/08/09 07:15:37;;;;;;;;;6.25;6.25;;;;;24.92;43.56;99494.31;5049320;28;45518;-62
2022/08/09 07:18:03;;;;;;;;;10.00;10.00;;;;;24.98;43.51;99498.28;5050117;28;45892;-62
2022/08/09 07:20:28;;;;;;;;;10.50;10.50;;;;;25.04;43.30;99490.47;5048386;28;45499;-67
2022/08/09 07:22:53;;;;;;;;;11.50;11.25;;;;;25.08;42.82;99499.13;5052345;28;46688;-63
2022/08/09 07:25:19;;;;;;;;;10.75;10.25;;;;;25.12;42.86;99495.16;5042659;28;45423;-63
2022/08/09 07:27:45;;;;;;;;;12.25;12.25;;;;;25.17;43.00;99500.97;5048278;28;45408;-63
2022/08/09 07:30:14;;;;;;;;;10.25;8.50;;;;;25.20;42.64;99497.13;5045578;28;45618;-63
2022/08/09 07:32:41;;;;;;;;;9.75;9.75;;;;;25.24;42.44;99506.63;5047387;28;45467;-62
2022/08/09 07:35:11;;;;;;;;;8.60;8.60;;;;;25.30;42.79;99501.50;5050886;28;45495;-70
2022/08/09 07:37:39;;;;;;;;;7.50;7.50;;;;;25.36;42.67;99498.22;5033753;28;45400;-69
2022/08/09 07:40:04;;;;;;;;;14.00;11.00;;;;;25.43;42.57;99494.94;5047366;28;45501;-65
2022/08/09 07:42:30;;;;;;;;;20.00;17.00;;;;;25.49;42.36;99502.44;5046888;28;46228;-65
2022/08/09 07:44:55;;;;;;;;;10.00;10.00;;;;;25.54;42.34;99506.41;5047164;28;45407;-67
2022/08/09 07:47:21;;;;;;;;;8.00;8.00;;;;;25.59;42.66;99503.28;5048447;28;45704;-63
2022/08/09 07:49:46;;;;;;;;;11.00;11.00;;;;;25.64;42.31;99498.28;5049801;28;45588;-67
2022/08/09 07:52:12;;;;;;;;;10.75;10.75;;;;;25.69;42.35;99506.81;5052724;28;46631;-72
2022/08/09 07:54:37;;;;;;;;;10.75;9.00;;;;;25.72;42.36;99501.13;5051322;28;45582;-64
2022/08/09 07:57:03;;;;;;;;;10.00;9.75;;;;;25.79;42.30;99499.53;5052613;28;45460;-66
2022/08/09 07:59:29;;;;;;;;;12.00;10.50;;;;;25.84;42.09;99502.63;5052530;28;45446;-69
2022/08/09 08:01:55;;;;;;;;;10.25;10.00;;;;;25.89;42.22;99486.81;5052973;28;45696;-68
2022/08/09 08:04:21;;;;;;;;;10.00;10.00;;;;;25.98;41.80;99493.16;5051426;28;45378;-64
2022/08/09 08:06:47;;;;;;;;;7.50;7.25;;;;;26.04;41.84;99488.03;5051772;28;45463;-63
2022/08/09 08:09:12;;;;;;;;;10.25;9.25;;;;;26.11;41.77;99484.72;5053966;28;45484;-63
2022/08/09 08:11:38;;;;;;;;;10.25;10.25;;;;;26.17;41.70;99489.50;5056094;28;45404;-68
2022/08/09 08:14:03;;;;;;;;;10.00;9.50;;;;;26.20;41.92;99481.94;5055915;28;45482;-69
2022/08/09 08:16:30;;;;;;;;;11.00;10.00;;;;;26.25;41.96;99482.34;5054738;28;45747;-67
2022/08/09 08:18:56;;;;;;;;;8.00;8.00;;;;;26.30;41.73;99484.66;5053665;28;46046;-67
2022/08/09 08:21:22;;;;;;;;;10.75;10.00;;;;;26.36;41.72;99487.56;5053113;28;45558;-73
2022/08/09 08:23:47;;;;;;;;;9.00;9.00;;;;;26.41;41.75;99485.25;5056383;28;45475;-72
2022/08/09 08:26:13;;;;;;;;;12.00;10.75;;;;;26.47;41.55;99482.97;5056588;28;45708;-66
2022/08/09 08:28:38;;;;;;;;;8.75;8.25;;;;;26.50;41.29;99479.91;5054279;28;45425;-65
2022/08/09 08:31:03;;;;;;;;;10.50;9.25;;;;;26.53;41.38;99468.81;5054496;28;46136;-65
2022/08/09 08:33:29;;;;;;;;;8.00;8.00;;;;;26.55;41.52;99473.06;5053260;28;45514;-65
2022/08/09 08:35:54;;;;;;;;;11.00;10.25;;;;;26.58;41.62;99467.34;5053398;27;45800;-65
2022/08/09 08:38:19;;;;;;;;;9.50;9.50;;;;;26.62;41.32;99470.59;5055252;28;45445;-66
2022/08/09 08:40:45;;;;;;;;;10.25;9.75;;;;;26.67;41.16;99470.97;5055456;28;45499;-65
2022/08/09 08:43:11;;;;;;;;;13.75;11.00;;;;;26.73;40.98;99465.78;5055017;28;45460;-66
2022/08/09 08:45:49;;;;;;;;;10.75;10.25;;;;;26.79;41.09;99463.47;5055535;28;45251;-66
2022/08/09 08:48:16;;;;;;;;;10.50;9.25;;;;;26.83;40.80;99465.69;5054938;27;45365;-67
2022/08/09 08:50:41;;;;;;;;;11.75;10.00;;;;;26.87;40.55;99458.97;5053435;28;45739;-66
2022/08/09 08:53:06;;;;;;;;;10.00;10.00;;;;;26.92;41.04;99461.22;5052561;28;45594;-67
2022/08/09 08:55:32;;;;;;;;;12.50;9.75;;;;;26.97;40.86;99454.34;5055222;28;45492;-67
2022/08/09 08:57:57;;;;;;;;;9.75;9.25;;;;;27.07;40.87;99459.66;5055074;28;45551;-66
2022/08/09 09:00:24;;;;;;;;;10.00;10.00;;;;;27.17;40.67;99460.41;5051262;28;46339;-65
2022/08/09 09:02:50;;;;;;;;;8.40;8.20;;;;;27.25;40.25;99459.63;5055098;28;45489;-65
2022/08/09 09:05:22;;;;;;;;;10.50;10.25;;;;;27.30;40.56;99460.00;5055683;28;45509;-66
2022/08/09 09:07:49;;;;;;;;;7.75;7.75;;;;;27.37;40.09;99461.03;5053178;28;45388;-68
2022/08/09 09:10:16;;;;;;;;;10.75;10.75;;;;;27.44;40.29;99460.25;5052851;28;46565;-65
2022/08/09 09:12:44;;;;;;;;;11.00;9.20;;;;;27.52;40.29;99447.75;5053154;28;45477;-65
2022/08/09 09:15:10;;;;;;;;;11.00;11.00;;;;;27.57;39.92;99451.72;5054275;28;45507;-65
2022/08/09 09:17:36;;;;;;;;;11.50;10.00;;;;;27.61;39.89;99447.69;5050724;28;45543;-65
2022/08/09 09:20:09;;;;;;;;;13.00;11.00;;;;;27.66;39.77;99442.59;5045925;28;46533;-65
2022/08/09 09:22:50;;;;;;;;;8.80;8.00;;;;;27.72;39.96;99441.09;5044198;28;45608;-65
2022/08/09 09:25:33;;;;;;;;;9.75;9.75;;;;;27.77;39.91;99438.75;5050364;28;45562;-66
2022/08/09 09:27:59;;;;;;;;;10.25;10.25;;;;;27.83;39.59;99432.66;5051898;28;45451;-66
2022/08/09 09:30:24;;;;;;;;;13.25;11.75;;;;;27.88;39.24;99433.03;5052221;28;46548;-66
2022/08/09 09:33:09;;;;;;;;;9.75;8.75;;;;;27.92;39.42;99433.56;5051610;28;45353;-67
2022/08/09 09:35:57;;;;;;;;;10.25;9.25;;;;;27.94;39.26;99431.53;5051402;28;45309;-65
2022/08/09 09:38:38;;;;;;;;;10.00;9.25;;;;;28.00;38.96;99426.28;5049171;28;45558;-65
2022/08/09 09:41:04;;;;;;;;;8.75;8.75;;;;;28.06;38.70;99422.94;5051215;28;46354;-66
2022/08/09 09:43:31;;;;;;;;;9.25;7.25;;;;;28.12;38.71;99424.16;5048496;28;45299;-64
2022/08/09 09:45:56;;;;;;;;;9.75;9.75;;;;;28.17;38.09;99418.19;5054488;28;45349;-61
2022/08/09 09:48:23;;;;;;;;;13.50;12.25;;;;;28.20;38.74;99417.91;5050026;28;45360;-68
2022/08/09 09:50:50;;;;;;;;;8.75;8.75;;;;;28.24;38.16;99414.69;5049971;28;45429;-64
2022/08/09 09:53:24;;;;;;;;;9.00;9.00;;;;;28.28;38.03;99407.94;5050152;28;45601;-60
2022/08/09 09:56:00;;;;;;;;;10.00;9.00;;;;;28.34;38.31;99411.81;5048854;28;45515;-60
2022/08/09 09:58:47;;;;;;;;;8.25;8.25;;;;;28.40;37.46;99413.88;5048357;28;45581;-63
2022/08/09 10:01:21;;;;;;;;;10.75;10.75;;;;;28.40;37.63;99408.44;5051165;28;45520;-63
2022/08/09 10:03:50;;;;;;;;;9.40;9.20;;;;;28.42;38.47;99409.97;5047758;28;45508;-65
2022/08/09 10:06:17;;;;;;;;;7.00;7.00;;;;;28.44;37.49;99402.53;5049716;28;45607;-65
2022/08/09 10:08:46;;;;;;;;;8.00;8.00;;;;;28.44;37.47;99407.94;5052463;28;45580;-64
2022/08/09 10:11:19;;;;;;;;;9.50;9.25;;;;;28.45;37.02;99406.94;5053181;28;46194;-61
2022/08/09 10:13:46;;;;;;;;;10.40;9.00;;;;;28.42;37.35;99401.00;5051777;28;45341;-72
2022/08/09 10:16:12;;;;;;;;;9.00;8.50;;;;;28.42;37.33;99401.00;5046240;28;45353;-66
2022/08/09 10:18:37;;;;;;;;;11.25;10.75;;;;;28.38;37.09;99391.50;5044866;28;45416;-66
2022/08/09 10:21:07;;;;;;;;;10.25;9.50;;;;;28.38;37.26;99388.78;5040916;28;46265;-66
2022/08/09 10:23:33;;;;;;;;;11.75;10.00;;;;;28.43;37.13;99389.13;5054244;28;45388;-65
2022/08/09 10:26:01;;;;;;;;;9.50;8.25;;;;;28.51;36.86;99390.97;5050436;28;45361;-68
2022/08/09 10:28:28;;;;;;;;;9.25;7.75;;;;;28.57;36.78;99377.59;5043572;28;45534;-68
2022/08/09 10:30:54;;;;;;;;;11.00;11.00;;;;;28.65;35.87;99380.31;5048373;28;45433;-71
2022/08/09 10:33:19;;;;;;;;;8.50;7.75;;;;;28.71;36.00;99371.47;5046223;28;45371;-67
2022/08/09 10:35:46;;;;;;;;;9.50;9.50;;;;;28.77;35.70;99365.38;5054545;28;45538;-62
2022/08/09 10:38:12;;;;;;;;;11.00;9.00;;;;;28.84;35.83;99373.69;5051886;28;45399;-65
2022/08/09 10:40:37;;;;;;;;;11.25;10.25;;;;;28.89;35.75;99365.03;5051832;28;46658;-61
2022/08/09 10:43:04;;;;;;;;;10.00;10.00;;;;;28.93;35.54;99353.69;5045758;28;45542;-62
2022/08/09 10:45:30;;;;;;;;;10.00;9.00;;;;;29.01;35.29;99358.22;5053967;28;45505;-64
2022/08/09 10:48:03;;;;;;;;;7.50;7.50;;;;;29.06;34.71;99351.25;5050415;28;45431;-64
2022/08/09 10:53:39;;;;;;;;;8.80;8.80;;;;;29.16;34.84;99351.91;5050422;28;45357;-64
2022/08/09 10:56:18;;;;;;;;;12.00;11.00;;;;;29.24;34.07;99340.19;5053435;28;45371;-63
2022/08/09 10:58:44;;;;;;;;;13.00;12.00;;;;;29.33;33.99;99333.69;5049779;28;45531;-64
2022/08/09 11:01:31;;;;;;;;;14.75;14.00;;;;;29.42;33.92;99339.97;5048134;28;45634;-64
2022/08/09 11:04:12;;;;;;;;;13.75;12.50;;;;;29.47;33.87;99324.00;5047458;28;45346;-64
2022/08/09 11:06:41;;;;;;;;;10.00;10.00;;;;;29.55;32.88;99333.97;5044120;28;45490;-64
2022/08/09 11:09:08;;;;;;;;;9.00;7.00;;;;;29.60;33.06;99318.81;5049270;28;45385;-64
2022/08/09 11:11:53;;;;;;;;;14.50;14.50;;;;;29.69;32.62;99319.63;5052264;28;46564;-64
2022/08/09 11:14:47;;;;;;;;;14.50;13.75;;;;;29.79;32.02;99331.13;5043250;28;45484;-64
2022/08/09 11:17:13;;;;;;;;;11.50;11.50;;;;;29.89;32.72;99312.69;5040359;28;45322;-64
2022/08/09 11:19:58;;;;;;;;;15.25;15.25;;;;;29.98;32.86;99311.66;5050300;28;45482;-65
2022/08/09 11:22:39;;;;;;;;;12.00;12.00;;;;;30.08;33.01;99316.84;5052450;28;45803;-66
2022/08/09 11:25:30;;;;;;;;;10.25;9.25;;;;;30.11;32.87;99309.19;5047405;28;45456;-65
2022/08/09 11:27:57;;;;;;;;;10.00;9.75;;;;;30.15;31.02;99315.94;5038372;28;45586;-64
2022/08/09 11:30:22;;;;;;;;;12.50;12.50;;;;;30.23;32.10;99304.16;5050099;28;45631;-64
2022/08/09 11:33:09;;;;;;;;;9.50;9.50;;;;;30.30;31.97;99307.84;5048556;28;45517;-64